sensor_id;sensor_type;location;lat;lon;timestamp;pressure;altitude;pressure_sealevel;temperature;humidity
79415;BME280;68864;44.972;19.612;2024-01-15T00:01:45;99959.00;;;0.68;73.36
79415;BME280;68864;44.972;19.612;2024-01-15T00:04:13;99954.31;;;0.69;73.22
79415;BME280;68864;44.972;19.612;2024-01-15T00:06:40;99954.63;;;0.67;73.50
79415;BME280;68864;44.972;19.612;2024-01-15T00:09:07;99932.75;;;0.54;73.92
79415;BME280;68864;44.972;19.612;2024-01-15T00:11:34;99950.53;;;0.56;74.21
79415;BME280;68864;44.972;19.612;2024-01-15T00:14:00;99933.56;;;0.54;73.58
79415;BME280;68864;44.972;19.612;2024-01-15T00:16:28;99938.31;;;0.40;74.71
79415;BME280;68864;44.972;19.612;2024-01-15T00:18:55;99942.88;;;0.45;74.42
79415;BME280;68864;44.972;19.612;2024-01-15T00:21:23;99929.31;;;0.39;74.31
79415;BME280;68864;44.972;19.612;2024-01-15T00:23:50;99929.97;;;0.45;74.14
79415;BME280;68864;44.972;19.612;2024-01-15T00:26:17;99924.28;;;0.42;74.94
79415;BME280;68864;44.972;19.612;2024-01-15T00:28:44;99912.41;;;0.46;74.94
79415;BME280;68864;44.972;19.612;2024-01-15T00:31:11;99912.72;;;0.45;74.97
79415;BME280;68864;44.972;19.612;2024-01-15T00:33:38;99914.00;;;0.47;74.68
79415;BME280;68864;44.972;19.612;2024-01-15T00:36:05;99912.06;;;0.48;73.87
79415;BME280;68864;44.972;19.612;2024-01-15T00:38:33;99906.13;;;0.46;73.98
79415;BME280;68864;44.972;19.612;2024-01-15T00:41:00;99896.56;;;0.43;74.45
79415;BME280;68864;44.972;19.612;2024-01-15T00:43:28;99902.81;;;0.35;74.95
79415;BME280;68864;44.972;19.612;2024-01-15T00:45:54;99904.72;;;0.34;74.87
79415;BME280;68864;44.972;19.612;2024-01-15T00:48:21;99903.31;;;0.37;74.08
79415;BME280;68864;44.972;19.612;2024-01-15T00:50:48;99907.69;;;0.38;74.13
79415;BME280;68864;44.972;19.612;2024-01-15T00:53:15;99908.16;;;0.40;73.19
79415;BME280;68864;44.972;19.612;2024-01-15T00:55:43;99906.19;;;0.32;73.12
79415;BME280;68864;44.972;19.612;2024-01-15T00:58:10;99907.91;;;0.28;73.79
79415;BME280;68864;44.972;19.612;2024-01-15T01:00:37;99904.06;;;0.07;74.18
79415;BME280;68864;44.972;19.612;2024-01-15T01:03:04;99900.81;;;0.05;74.15
79415;BME280;68864;44.972;19.612;2024-01-15T01:05:32;99894.59;;;-0.10;73.48
79415;BME280;68864;44.972;19.612;2024-01-15T01:07:59;99901.81;;;-0.14;74.15
79415;BME280;68864;44.972;19.612;2024-01-15T01:10:27;99900.28;;;-0.20;73.66
79415;BME280;68864;44.972;19.612;2024-01-15T01:12:55;99895.44;;;-0.23;73.87
79415;BME280;68864;44.972;19.612;2024-01-15T01:15:22;99878.22;;;-0.37;73.93
79415;BME280;68864;44.972;19.612;2024-01-15T01:17:50;99896.03;;;-0.26;74.14
79415;BME280;68864;44.972;19.612;2024-01-15T01:20:17;99898.28;;;-0.28;73.35
79415;BME280;68864;44.972;19.612;2024-01-15T01:22:43;99891.69;;;-0.27;73.63
79415;BME280;68864;44.972;19.612;2024-01-15T01:25:10;99890.78;;;-0.22;73.50
79415;BME280;68864;44.972;19.612;2024-01-15T01:27:37;99881.91;;;-0.19;73.15
79415;BME280;68864;44.972;19.612;2024-01-15T01:30:07;99873.09;;;-0.16;72.70
79415;BME280;68864;44.972;19.612;2024-01-15T01:32:33;99874.09;;;-0.12;72.73
79415;BME280;68864;44.972;19.612;2024-01-15T01:35:01;99866.25;;;-0.05;72.62
79415;BME280;68864;44.972;19.612;2024-01-15T01:37:28;99854.09;;;-0.13;72.33
79415;BME280;68864;44.972;19.612;2024-01-15T01:39:54;99866.56;;;-0.07;72.47
79415;BME280;68864;44.972;19.612;2024-01-15T01:42:21;99858.84;;;-0.05;72.20
79415;BME280;68864;44.972;19.612;2024-01-15T01:44:48;99857.13;;;-0.01;71.55
79415;BME280;68864;44.972;19.612;2024-01-15T01:47:17;99848.09;;;-0.01;72.01
79415;BME280;68864;44.972;19.612;2024-01-15T01:49:45;99848.13;;;0.08;71.77
79415;BME280;68864;44.972;19.612;2024-01-15T01:52:13;99852.81;;;0.07;70.97
79415;BME280;68864;44.972;19.612;2024-01-15T01:54:40;99836.38;;;0.07;71.52
79415;BME280;68864;44.972;19.612;2024-01-15T01:57:08;99847.22;;;0.12;71.09
79415;BME280;68864;44.972;19.612;2024-01-15T01:59:35;99832.47;;;-0.01;71.59
79415;BME280;68864;44.972;19.612;2024-01-15T02:02:03;99827.47;;;0.02;71.28
79415;BME280;68864;44.972;19.612;2024-01-15T02:04:31;99825.41;;;0.07;71.57
79415;BME280;68864;44.972;19.612;2024-01-15T02:06:59;99820.63;;;0.13;71.10
79415;BME280;68864;44.972;19.612;2024-01-15T02:09:26;99822.88;;;0.11;71.36
79415;BME280;68864;44.972;19.612;2024-01-15T02:11:53;99809.69;;;0.13;72.00
79415;BME280;68864;44.972;19.612;2024-01-15T02:14:20;99800.31;;;0.14;72.89
79415;BME280;68864;44.972;19.612;2024-01-15T02:16:47;99797.00;;;0.25;73.52
79415;BME280;68864;44.972;19.612;2024-01-15T02:19:17;99796.19;;;0.25;74.60
79415;BME280;68864;44.972;19.612;2024-01-15T02:21:45;99788.66;;;0.30;74.86
79415;BME280;68864;44.972;19.612;2024-01-15T02:24:14;99790.28;;;0.40;73.97
79415;BME280;68864;44.972;19.612;2024-01-15T02:26:41;99778.09;;;0.46;74.39
79415;BME280;68864;44.972;19.612;2024-01-15T02:29:08;99769.06;;;0.54;74.16
79415;BME280;68864;44.972;19.612;2024-01-15T02:31:36;99773.63;;;0.59;74.43
79415;BME280;68864;44.972;19.612;2024-01-15T02:34:03;99769.94;;;0.63;74.19
79415;BME280;68864;44.972;19.612;2024-01-15T02:36:30;99759.59;;;0.60;74.25
79415;BME280;68864;44.972;19.612;2024-01-15T02:38:57;99755.72;;;0.61;74.53
79415;BME280;68864;44.972;19.612;2024-01-15T02:41:25;99752.50;;;0.68;74.83
79415;BME280;68864;44.972;19.612;2024-01-15T02:43:52;99753.81;;;0.70;74.78
79415;BME280;68864;44.972;19.612;2024-01-15T02:46:19;99744.28;;;0.68;74.78
79415;BME280;68864;44.972;19.612;2024-01-15T02:48:46;99739.47;;;0.73;75.25
79415;BME280;68864;44.972;19.612;2024-01-15T02:51:13;99738.03;;;0.76;75.50
79415;BME280;68864;44.972;19.612;2024-01-15T02:53:40;99727.56;;;0.78;74.63
79415;BME280;68864;44.972;19.612;2024-01-15T02:56:07;99720.59;;;0.80;74.95
79415;BME280;68864;44.972;19.612;2024-01-15T02:58:35;99718.84;;;0.85;75.35
79415;BME280;68864;44.972;19.612;2024-01-15T03:01:02;99711.59;;;0.89;75.46
79415;BME280;68864;44.972;19.612;2024-01-15T03:03:29;99710.97;;;0.92;75.47
79415;BME280;68864;44.972;19.612;2024-01-15T03:05:56;99713.84;;;0.95;75.78
79415;BME280;68864;44.972;19.612;2024-01-15T03:08:23;99708.88;;;0.97;75.89
79415;BME280;68864;44.972;19.612;2024-01-15T03:10:50;99705.47;;;1.00;75.61
79415;BME280;68864;44.972;19.612;2024-01-15T03:13:17;99699.66;;;1.02;75.82
79415;BME280;68864;44.972;19.612;2024-01-15T03:15:46;99685.63;;;1.03;75.90
79415;BME280;68864;44.972;19.612;2024-01-15T03:18:13;99689.19;;;1.04;76.01
79415;BME280;68864;44.972;19.612;2024-01-15T03:20:39;99676.44;;;0.99;76.57
79415;BME280;68864;44.972;19.612;2024-01-15T03:23:06;99681.44;;;0.97;77.95
79415;BME280;68864;44.972;19.612;2024-01-15T03:25:33;99668.34;;;0.94;78.01
79415;BME280;68864;44.972;19.612;2024-01-15T03:28:00;99664.47;;;0.95;77.93
79415;BME280;68864;44.972;19.612;2024-01-15T03:30:27;99653.81;;;0.94;79.03
79415;BME280;68864;44.972;19.612;2024-01-15T03:32:55;99658.81;;;1.00;79.05
79415;BME280;68864;44.972;19.612;2024-01-15T03:35:22;99645.59;;;1.02;78.68
79415;BME280;68864;44.972;19.612;2024-01-15T03:37:54;99644.97;;;1.05;78.53
79415;BME280;68864;44.972;19.612;2024-01-15T03:40:21;99633.19;;;1.05;78.99
79415;BME280;68864;44.972;19.612;2024-01-15T03:42:48;99641.56;;;1.08;78.56
79415;BME280;68864;44.972;19.612;2024-01-15T03:45:15;99630.75;;;1.03;79.02
79415;BME280;68864;44.972;19.612;2024-01-15T03:47:42;99626.56;;;1.06;78.58
79415;BME280;68864;44.972;19.612;2024-01-15T03:50:10;99630.56;;;1.00;79.37
79415;BME280;68864;44.972;19.612;2024-01-15T03:52:37;99627.22;;;1.03;78.87
79415;BME280;68864;44.972;19.612;2024-01-15T03:55:05;99615.59;;;1.06;78.65
79415;BME280;68864;44.972;19.612;2024-01-15T03:57:32;99618.97;;;1.03;79.02
79415;BME280;68864;44.972;19.612;2024-01-15T03:59:59;99615.28;;;0.99;79.86
79415;BME280;68864;44.972;19.612;2024-01-15T04:02:26;99609.94;;;0.94;79.98
79415;BME280;68864;44.972;19.612;2024-01-15T04:04:52;99604.13;;;0.87;80.17
79415;BME280;68864;44.972;19.612;2024-01-15T04:07:21;99607.03;;;0.82;80.55
79415;BME280;68864;44.972;19.612;2024-01-15T04:09:48;99595.28;;;0.72;81.26
79415;BME280;68864;44.972;19.612;2024-01-15T04:12:14;99593.63;;;0.63;81.14
79415;BME280;68864;44.972;19.612;2024-01-15T04:14:41;99579.94;;;0.63;81.46
79415;BME280;68864;44.972;19.612;2024-01-15T04:17:08;99581.88;;;0.62;81.56
79415;BME280;68864;44.972;19.612;2024-01-15T04:19:35;99578.00;;;0.63;81.10
79415;BME280;68864;44.972;19.612;2024-01-15T04:22:02;99573.97;;;0.61;80.61
79415;BME280;68864;44.972;19.612;2024-01-15T04:24:32;99588.31;;;0.58;81.68
79415;BME280;68864;44.972;19.612;2024-01-15T04:26:59;99589.94;;;0.59;82.20
79415;BME280;68864;44.972;19.612;2024-01-15T04:29:26;99581.38;;;0.60;81.71
79415;BME280;68864;44.972;19.612;2024-01-15T04:31:53;99576.06;;;0.64;81.42
79415;BME280;68864;44.972;19.612;2024-01-15T04:34:20;99582.03;;;0.57;81.54
79415;BME280;68864;44.972;19.612;2024-01-15T04:36:47;99568.81;;;0.51;82.49
79415;BME280;68864;44.972;19.612;2024-01-15T04:39:14;99565.88;;;0.47;82.57
79415;BME280;68864;44.972;19.612;2024-01-15T04:41:42;99558.81;;;0.46;83.01
79415;BME280;68864;44.972;19.612;2024-01-15T04:44:09;99566.84;;;0.43;82.94
79415;BME280;68864;44.972;19.612;2024-01-15T04:46:36;99568.63;;;0.47;82.19
79415;BME280;68864;44.972;19.612;2024-01-15T04:49:03;99581.22;;;0.48;82.58
79415;BME280;68864;44.972;19.612;2024-01-15T04:51:30;99575.41;;;0.50;82.06
79415;BME280;68864;44.972;19.612;2024-01-15T04:53:56;99563.50;;;0.46;81.76
79415;BME280;68864;44.972;19.612;2024-01-15T04:56:23;99570.41;;;0.60;81.91
79415;BME280;68864;44.972;19.612;2024-01-15T04:58:52;99562.50;;;0.50;82.32
79415;BME280;68864;44.972;19.612;2024-01-15T05:01:18;99576.22;;;0.59;82.06
79415;BME280;68864;44.972;19.612;2024-01-15T05:03:45;99582.03;;;0.57;82.28
79415;BME280;68864;44.972;19.612;2024-01-15T05:06:12;99571.69;;;0.54;82.45
79415;BME280;68864;44.972;19.612;2024-01-15T05:08:39;99559.47;;;0.52;82.18
79415;BME280;68864;44.972;19.612;2024-01-15T05:11:06;99563.13;;;0.47;83.03
79415;BME280;68864;44.972;19.612;2024-01-15T05:13:33;99565.25;;;0.50;82.54
79415;BME280;68864;44.972;19.612;2024-01-15T05:16:02;99556.22;;;0.50;82.70
79415;BME280;68864;44.972;19.612;2024-01-15T05:18:28;99546.06;;;0.42;81.79
79415;BME280;68864;44.972;19.612;2024-01-15T05:20:55;99543.63;;;0.40;82.28
79415;BME280;68864;44.972;19.612;2024-01-15T05:23:22;99549.28;;;0.44;82.05
79415;BME280;68864;44.972;19.612;2024-01-15T05:25:49;99558.13;;;0.40;82.15
79415;BME280;68864;44.972;19.612;2024-01-15T05:28:16;99547.66;;;0.43;82.12
79415;BME280;68864;44.972;19.612;2024-01-15T05:30:43;99541.69;;;0.40;82.29
79415;BME280;68864;44.972;19.612;2024-01-15T05:33:12;99548.78;;;0.42;82.30
79415;BME280;68864;44.972;19.612;2024-01-15T05:35:39;99548.00;;;0.50;82.06
79415;BME280;68864;44.972;19.612;2024-01-15T05:38:05;99537.22;;;0.53;82.12
79415;BME280;68864;44.972;19.612;2024-01-15T05:40:32;99541.06;;;0.61;81.44
79415;BME280;68864;44.972;19.612;2024-01-15T05:42:58;99526.06;;;0.58;81.68
79415;BME280;68864;44.972;19.612;2024-01-15T05:45:26;99531.06;;;0.65;80.92
79415;BME280;68864;44.972;19.612;2024-01-15T05:47:53;99528.97;;;0.70;81.23
79415;BME280;68864;44.972;19.612;2024-01-15T05:50:23;99525.09;;;0.71;81.05
79415;BME280;68864;44.972;19.612;2024-01-15T05:52:50;99522.50;;;0.75;81.13
79415;BME280;68864;44.972;19.612;2024-01-15T05:55:17;99523.94;;;0.81;81.20
79415;BME280;68864;44.972;19.612;2024-01-15T05:57:44;99534.59;;;0.83;81.14
79415;BME280;68864;44.972;19.612;2024-01-15T06:00:12;99531.84;;;0.91;81.18
79415;BME280;68864;44.972;19.612;2024-01-15T06:02:39;99531.53;;;0.93;81.01
79415;BME280;68864;44.972;19.612;2024-01-15T06:05:06;99533.13;;;0.94;80.68
79415;BME280;68864;44.972;19.612;2024-01-15T06:07:35;99528.13;;;0.96;80.52
79415;BME280;68864;44.972;19.612;2024-01-15T06:10:02;99532.00;;;1.03;80.11
79415;BME280;68864;44.972;19.612;2024-01-15T06:12:29;99518.59;;;1.02;81.90
79415;BME280;68864;44.972;19.612;2024-01-15T06:14:57;99522.44;;;1.09;80.44
79415;BME280;68864;44.972;19.612;2024-01-15T06:17:24;99522.75;;;1.16;80.58
79415;BME280;68864;44.972;19.612;2024-01-15T06:19:51;99517.91;;;1.22;80.88
79415;BME280;68864;44.972;19.612;2024-01-15T06:22:18;99515.78;;;1.28;80.24
79415;BME280;68864;44.972;19.612;2024-01-15T06:24:46;99529.16;;;1.38;80.09
79415;BME280;68864;44.972;19.612;2024-01-15T06:27:13;99514.94;;;1.44;80.74
79415;BME280;68864;44.972;19.612;2024-01-15T06:29:44;99517.97;;;1.51;80.50
79415;BME280;68864;44.972;19.612;2024-01-15T06:32:12;99512.28;;;1.56;80.54
79415;BME280;68864;44.972;19.612;2024-01-15T06:34:39;99509.50;;;1.65;80.00
79415;BME280;68864;44.972;19.612;2024-01-15T06:37:06;99498.38;;;1.62;80.23
79415;BME280;68864;44.972;19.612;2024-01-15T06:39:34;99497.66;;;1.73;80.31
79415;BME280;68864;44.972;19.612;2024-01-15T06:42:02;99494.25;;;1.76;80.54
79415;BME280;68864;44.972;19.612;2024-01-15T06:44:29;99504.72;;;1.83;80.44
79415;BME280;68864;44.972;19.612;2024-01-15T06:46:56;99504.06;;;1.86;80.28
79415;BME280;68864;44.972;19.612;2024-01-15T06:49:27;99501.31;;;1.86;79.94
79415;BME280;68864;44.972;19.612;2024-01-15T06:51:54;99500.31;;;1.90;79.82
79415;BME280;68864;44.972;19.612;2024-01-15T06:54:21;99502.88;;;1.95;80.47
79415;BME280;68864;44.972;19.612;2024-01-15T06:56:49;99498.94;;;2.05;79.46
79415;BME280;68864;44.972;19.612;2024-01-15T06:59:17;99485.19;;;2.05;80.03
79415;BME280;68864;44.972;19.612;2024-01-15T07:01:44;99496.13;;;2.14;79.26
79415;BME280;68864;44.972;19.612;2024-01-15T07:04:11;99495.94;;;2.19;79.60
79415;BME280;68864;44.972;19.612;2024-01-15T07:06:38;99496.53;;;2.24;79.09
79415;BME280;68864;44.972;19.612;2024-01-15T07:09:05;99497.63;;;2.32;78.84
79415;BME280;68864;44.972;19.612;2024-01-15T07:11:34;99502.91;;;2.37;78.82
79415;BME280;68864;44.972;19.612;2024-01-15T07:14:01;99504.44;;;2.47;78.54
79415;BME280;68864;44.972;19.612;2024-01-15T07:16:29;99500.00;;;2.54;77.83
79415;BME280;68864;44.972;19.612;2024-01-15T07:18:56;99499.81;;;2.59;78.08
79415;BME280;68864;44.972;19.612;2024-01-15T07:21:23;99493.78;;;2.66;77.60
79415;BME280;68864;44.972;19.612;2024-01-15T07:23:50;99488.41;;;2.69;77.47
79415;BME280;68864;44.972;19.612;2024-01-15T07:26:17;99485.56;;;2.78;77.35
79415;BME280;68864;44.972;19.612;2024-01-15T07:28:44;99495.00;;;2.89;76.77
79415;BME280;68864;44.972;19.612;2024-01-15T07:31:11;99487.56;;;2.90;76.99
79415;BME280;68864;44.972;19.612;2024-01-15T07:33:39;99484.91;;;2.93;76.66
79415;BME280;68864;44.972;19.612;2024-01-15T07:36:06;99487.47;;;2.98;77.09
79415;BME280;68864;44.972;19.612;2024-01-15T07:38:33;99495.72;;;2.98;76.65
79415;BME280;68864;44.972;19.612;2024-01-15T07:41:00;99492.75;;;3.03;77.25
79415;BME280;68864;44.972;19.612;2024-01-15T07:43:27;99495.50;;;3.03;77.25
79415;BME280;68864;44.972;19.612;2024-01-15T07:45:54;99494.22;;;3.01;77.51
79415;BME280;68864;44.972;19.612;2024-01-15T07:48:20;99490.81;;;3.04;76.56
79415;BME280;68864;44.972;19.612;2024-01-15T07:50:48;99488.09;;;3.16;79.32
79415;BME280;68864;44.972;19.612;2024-01-15T07:53:15;99486.38;;;3.24;77.67
79415;BME280;68864;44.972;19.612;2024-01-15T07:55:42;99488.59;;;3.42;80.40
79415;BME280;68864;44.972;19.612;2024-01-15T07:58:11;99489.06;;;3.56;77.68
79415;BME280;68864;44.972;19.612;2024-01-15T08:00:38;99500.19;;;3.60;76.29
79415;BME280;68864;44.972;19.612;2024-01-15T08:03:05;99498.03;;;3.78;76.42
79415;BME280;68864;44.972;19.612;2024-01-15T08:05:32;99503.63;;;3.81;74.96
79415;BME280;68864;44.972;19.612;2024-01-15T08:08:00;99507.22;;;3.82;74.31
79415;BME280;68864;44.972;19.612;2024-01-15T08:10:27;99510.44;;;3.84;74.60
79415;BME280;68864;44.972;19.612;2024-01-15T08:12:54;99508.34;;;3.93;73.95
79415;BME280;68864;44.972;19.612;2024-01-15T08:15:21;99517.78;;;4.04;73.90
79415;BME280;68864;44.972;19.612;2024-01-15T08:17:48;99505.59;;;4.17;73.26
79415;BME280;68864;44.972;19.612;2024-01-15T08:20:16;99505.88;;;4.40;73.04
79415;BME280;68864;44.972;19.612;2024-01-15T08:22:43;99510.91;;;4.50;71.82
79415;BME280;68864;44.972;19.612;2024-01-15T08:25:11;99506.63;;;4.53;71.62
79415;BME280;68864;44.972;19.612;2024-01-15T08:27:38;99508.66;;;4.68;70.60
79415;BME280;68864;44.972;19.612;2024-01-15T08:30:06;99511.66;;;4.63;70.54
79415;BME280;68864;44.972;19.612;2024-01-15T08:32:33;99515.94;;;4.60;70.85
79415;BME280;68864;44.972;19.612;2024-01-15T08:35:02;99513.84;;;4.69;71.05
79415;BME280;68864;44.972;19.612;2024-01-15T08:37:29;99515.53;;;4.74;70.79
79415;BME280;68864;44.972;19.612;2024-01-15T08:39:56;99515.00;;;4.68;70.50
79415;BME280;68864;44.972;19.612;2024-01-15T08:42:25;99524.88;;;4.69;70.95
79415;BME280;68864;44.972;19.612;2024-01-15T08:44:52;99527.63;;;4.69;70.13
79415;BME280;68864;44.972;19.612;2024-01-15T08:47:18;99520.53;;;4.56;70.53
79415;BME280;68864;44.972;19.612;2024-01-15T08:49:45;99522.47;;;4.68;70.68
79415;BME280;68864;44.972;19.612;2024-01-15T08:52:12;99525.13;;;4.64;70.56
79415;BME280;68864;44.972;19.612;2024-01-15T08:54:40;99520.09;;;4.54;71.09
79415;BME280;68864;44.972;19.612;2024-01-15T08:57:07;99523.56;;;4.79;70.59
79415;BME280;68864;44.972;19.612;2024-01-15T08:59:35;99518.56;;;4.97;70.23
79415;BME280;68864;44.972;19.612;2024-01-15T09:02:02;99514.06;;;5.20;68.90
79415;BME280;68864;44.972;19.612;2024-01-15T09:04:29;99510.69;;;5.27;69.01
79415;BME280;68864;44.972;19.612;2024-01-15T09:06:56;99507.75;;;5.35;68.95
79415;BME280;68864;44.972;19.612;2024-01-15T09:09:23;99507.50;;;5.56;68.01
79415;BME280;68864;44.972;19.612;2024-01-15T09:11:50;99498.84;;;5.42;68.23
79415;BME280;68864;44.972;19.612;2024-01-15T09:14:17;99496.06;;;5.26;69.03
79415;BME280;68864;44.972;19.612;2024-01-15T09:16:45;99501.34;;;5.31;69.41
79415;BME280;68864;44.972;19.612;2024-01-15T09:19:12;99497.97;;;5.38;68.88
79415;BME280;68864;44.972;19.612;2024-01-15T09:21:40;99490.81;;;5.52;68.81
79415;BME280;68864;44.972;19.612;2024-01-15T09:24:06;99492.53;;;5.57;68.77
79415;BME280;68864;44.972;19.612;2024-01-15T09:26:33;99488.06;;;5.68;68.12
79415;BME280;68864;44.972;19.612;2024-01-15T09:29:00;99485.50;;;5.75;67.58
79415;BME280;68864;44.972;19.612;2024-01-15T09:31:28;99482.78;;;5.79;67.28
79415;BME280;68864;44.972;19.612;2024-01-15T09:33:56;99485.13;;;5.77;67.24
79415;BME280;68864;44.972;19.612;2024-01-15T09:36:25;99489.22;;;5.83;67.53
79415;BME280;68864;44.972;19.612;2024-01-15T09:38:52;99495.09;;;5.81;67.42
79415;BME280;68864;44.972;19.612;2024-01-15T09:41:19;99500.50;;;5.90;67.33
79415;BME280;68864;44.972;19.612;2024-01-15T09:43:47;99509.03;;;6.01;67.03
79415;BME280;68864;44.972;19.612;2024-01-15T09:46:13;99511.16;;;6.07;66.78
79415;BME280;68864;44.972;19.612;2024-01-15T09:48:42;99509.56;;;6.41;66.16
79415;BME280;68864;44.972;19.612;2024-01-15T09:51:10;99513.63;;;6.63;65.90
79415;BME280;68864;44.972;19.612;2024-01-15T09:53:38;99501.72;;;6.82;65.34
79415;BME280;68864;44.972;19.612;2024-01-15T09:56:06;99503.84;;;6.88;65.71
79415;BME280;68864;44.972;19.612;2024-01-15T09:58:33;99499.31;;;6.80;65.44
79415;BME280;68864;44.972;19.612;2024-01-15T10:01:01;99490.84;;;6.92;65.17
79415;BME280;68864;44.972;19.612;2024-01-15T10:03:29;99492.59;;;7.00;65.24
79415;BME280;68864;44.972;19.612;2024-01-15T10:05:58;99506.47;;;7.00;65.17
79415;BME280;68864;44.972;19.612;2024-01-15T10:08:27;99497.59;;;6.91;65.43
79415;BME280;68864;44.972;19.612;2024-01-15T10:10:54;99503.69;;;6.81;65.46
79415;BME280;68864;44.972;19.612;2024-01-15T10:13:22;99498.59;;;6.83;65.48
79415;BME280;68864;44.972;19.612;2024-01-15T10:15:49;99493.94;;;6.87;65.10
79415;BME280;68864;44.972;19.612;2024-01-15T10:18:16;99494.06;;;6.94;65.65
79415;BME280;68864;44.972;19.612;2024-01-15T10:20:44;99484.88;;;7.09;65.90
79415;BME280;68864;44.972;19.612;2024-01-15T10:23:11;99488.34;;;7.26;65.20
79415;BME280;68864;44.972;19.612;2024-01-15T10:25:41;99485.69;;;7.33;65.09
79415;BME280;68864;44.972;19.612;2024-01-15T10:28:08;99478.00;;;7.23;65.98
79415;BME280;68864;44.972;19.612;2024-01-15T10:30:35;99479.16;;;7.22;66.28
79415;BME280;68864;44.972;19.612;2024-01-15T10:33:03;99461.16;;;7.12;66.70
79415;BME280;68864;44.972;19.612;2024-01-15T10:35:31;99459.19;;;7.12;66.21
79415;BME280;68864;44.972;19.612;2024-01-15T10:37:58;99452.78;;;7.08;66.82
79415;BME280;68864;44.972;19.612;2024-01-15T10:40:25;99446.63;;;7.18;66.92
79415;BME280;68864;44.972;19.612;2024-01-15T10:42:54;99435.81;;;7.10;67.06
79415;BME280;68864;44.972;19.612;2024-01-15T10:45:22;99429.34;;;7.02;67.61
79415;BME280;68864;44.972;19.612;2024-01-15T10:47:49;99421.34;;;6.97;67.55
79415;BME280;68864;44.972;19.612;2024-01-15T10:50:16;99431.16;;;6.95;68.39
79415;BME280;68864;44.972;19.612;2024-01-15T10:52:43;99421.44;;;6.82;68.41
79415;BME280;68864;44.972;19.612;2024-01-15T10:55:11;99414.81;;;6.48;69.99
79415;BME280;68864;44.972;19.612;2024-01-15T10:57:38;99407.97;;;6.42;69.77
79415;BME280;68864;44.972;19.612;2024-01-15T11:00:08;99405.81;;;6.31;69.67
79415;BME280;68864;44.972;19.612;2024-01-15T11:02:40;99390.19;;;6.04;70.36
79415;BME280;68864;44.972;19.612;2024-01-15T11:05:07;99396.66;;;6.12;70.41
79415;BME280;68864;44.972;19.612;2024-01-15T11:07:35;99393.78;;;6.05;69.86
79415;BME280;68864;44.972;19.612;2024-01-15T11:10:03;99388.00;;;6.13;69.00
79415;BME280;68864;44.972;19.612;2024-01-15T11:12:31;99377.28;;;6.12;68.59
79415;BME280;68864;44.972;19.612;2024-01-15T11:15:02;99374.03;;;6.25;67.84
79415;BME280;68864;44.972;19.612;2024-01-15T11:20:30;99358.53;;;6.21;67.87
79415;BME280;68864;44.972;19.612;2024-01-15T11:22:58;99348.13;;;6.14;67.92
79415;BME280;68864;44.972;19.612;2024-01-15T11:25:34;99359.19;;;6.33;67.98
79415;BME280;68864;44.972;19.612;2024-01-15T11:28:04;99355.16;;;6.12;68.38
79415;BME280;68864;44.972;19.612;2024-01-15T11:30:31;99364.50;;;6.23;68.28
79415;BME280;68864;44.972;19.612;2024-01-15T11:33:01;99367.13;;;6.35;67.81
79415;BME280;68864;44.972;19.612;2024-01-15T11:35:51;99365.31;;;6.04;67.75
79415;BME280;68864;44.972;19.612;2024-01-15T11:38:28;99363.84;;;5.91;67.89
79415;BME280;68864;44.972;19.612;2024-01-15T11:40:55;99352.53;;;5.99;67.46
79415;BME280;68864;44.972;19.612;2024-01-15T11:43:22;99355.22;;;5.61;68.73
79415;BME280;68864;44.972;19.612;2024-01-15T11:45:52;99339.00;;;5.59;69.08
79415;BME280;68864;44.972;19.612;2024-01-15T11:48:20;99329.91;;;5.59;68.96
79415;BME280;68864;44.972;19.612;2024-01-15T11:50:51;99330.31;;;5.77;68.21
79415;BME280;68864;44.972;19.612;2024-01-15T11:53:27;99322.66;;;5.70;68.77
79415;BME280;68864;44.972;19.612;2024-01-15T11:55:58;99322.59;;;5.86;68.18
79415;BME280;68864;44.972;19.612;2024-01-15T11:58:25;99324.13;;;5.83;68.64
79415;BME280;68864;44.972;19.612;2024-01-15T12:00:55;99315.06;;;6.02;67.86
79415;BME280;68864;44.972;19.612;2024-01-15T12:03:22;99317.06;;;5.86;68.30
79415;BME280;68864;44.972;19.612;2024-01-15T12:05:49;99328.75;;;5.95;68.23
79415;BME280;68864;44.972;19.612;2024-01-15T12:08:22;99315.91;;;5.87;68.88
79415;BME280;68864;44.972;19.612;2024-01-15T12:10:49;99326.94;;;5.68;69.57
79415;BME280;68864;44.972;19.612;2024-01-15T12:13:16;99313.47;;;5.66;69.78
79415;BME280;68864;44.972;19.612;2024-01-15T12:15:44;99320.13;;;5.46;71.04
79415;BME280;68864;44.972;19.612;2024-01-15T12:18:12;99310.19;;;5.60;70.77
79415;BME280;68864;44.972;19.612;2024-01-15T12:20:40;99304.44;;;5.50;70.81
79415;BME280;68864;44.972;19.612;2024-01-15T12:23:08;99299.44;;;5.55;71.50
79415;BME280;68864;44.972;19.612;2024-01-15T12:25:37;99280.50;;;5.38;72.34
79415;BME280;68864;44.972;19.612;2024-01-15T12:28:05;99284.75;;;5.51;72.60
79415;BME280;68864;44.972;19.612;2024-01-15T12:30:34;99271.66;;;5.48;72.87
79415;BME280;68864;44.972;19.612;2024-01-15T12:33:01;99268.28;;;5.58;72.23
79415;BME280;68864;44.972;19.612;2024-01-15T12:35:29;99261.47;;;5.52;73.26
79415;BME280;68864;44.972;19.612;2024-01-15T12:37:56;99257.47;;;5.50;73.03
79415;BME280;68864;44.972;19.612;2024-01-15T12:40:23;99257.38;;;5.46;73.92
79415;BME280;68864;44.972;19.612;2024-01-15T12:42:52;99249.84;;;5.43;74.34
79415;BME280;68864;44.972;19.612;2024-01-15T12:45:19;99243.94;;;5.45;73.99
79415;BME280;68864;44.972;19.612;2024-01-15T12:47:46;99243.34;;;5.01;76.72
79415;BME280;68864;44.972;19.612;2024-01-15T12:50:13;99245.41;;;4.88;77.55
79415;BME280;68864;44.972;19.612;2024-01-15T12:52:41;99250.66;;;4.93;77.34
79415;BME280;68864;44.972;19.612;2024-01-15T12:55:08;99257.59;;;4.87;77.70
79415;BME280;68864;44.972;19.612;2024-01-15T12:57:36;99272.38;;;4.95;77.63
79415;BME280;68864;44.972;19.612;2024-01-15T13:00:05;99297.75;;;5.00;77.73
79415;BME280;68864;44.972;19.612;2024-01-15T13:02:36;99309.00;;;4.92;76.44
79415;BME280;68864;44.972;19.612;2024-01-15T13:05:03;99301.97;;;4.78;76.79